sensor_id;sensor_type;location;lat;lon;timestamp;temperature;humidity
336;DHT22;156;48.738;9.228;2023-02-28T00:00:20;-2.10;1.00
336;DHT22;156;48.738;9.228;2023-02-28T00:02:48;-2.10;1.00
336;DHT22;156;48.738;9.228;2023-02-28T00:05:17;-2.10;1.00
336;DHT22;156;48.738;9.228;2023-02-28T00:07:44;-2.20;1.00
336;DHT22;156;48.738;9.228;2023-02-28T00:10:13;-2.20;1.00
336;DHT22;156;48.738;9.228;2023-02-28T00:12:40;-2.20;1.00
336;DHT22;156;48.738;9.228;2023-02-28T00:15:09;-2.20;1.00
336;DHT22;156;48.738;9.228;2023-02-28T00:17:38;-2.20;1.00
336;DHT22;156;48.738;9.228;2023-02-28T00:20:08;-2.30;1.00
336;DHT22;156;48.738;9.228;2023-02-28T00:22:37;-2.30;1.00
336;DHT22;156;48.738;9.228;2023-02-28T00:25:05;-2.30;1.00
336;DHT22;156;48.738;9.228;2023-02-28T00:27:33;-2.30;1.00
336;DHT22;156;48.738;9.228;2023-02-28T00:30:01;-2.30;1.00
336;DHT22;156;48.738;9.228;2023-02-28T00:32:28;-2.30;1.00
336;DHT22;156;48.738;9.228;2023-02-28T00:34:55;-2.30;1.00
336;DHT22;156;48.738;9.228;2023-02-28T00:37:23;-2.30;1.00
336;DHT22;156;48.738;9.228;2023-02-28T00:39:50;-2.30;1.00
336;DHT22;156;48.738;9.228;2023-02-28T00:42:17;-2.40;1.00
336;DHT22;156;48.738;9.228;2023-02-28T00:44:44;-2.40;1.00
336;DHT22;156;48.738;9.228;2023-02-28T00:47:11;-2.40;1.00
336;DHT22;156;48.738;9.228;2023-02-28T00:49:38;-2.50;1.00
336;DHT22;156;48.738;9.228;2023-02-28T00:52:05;-2.40;1.00
336;DHT22;156;48.738;9.228;2023-02-28T00:54:33;-2.40;1.00
336;DHT22;156;48.738;9.228;2023-02-28T00:57:00;-2.50;1.00
336;DHT22;156;48.738;9.228;2023-02-28T00:59:27;-2.50;1.00
336;DHT22;156;48.738;9.228;2023-02-28T01:01:53;-2.50;1.00
336;DHT22;156;48.738;9.228;2023-02-28T01:04:20;-2.50;1.00
336;DHT22;156;48.738;9.228;2023-02-28T01:06:47;-2.50;1.00
336;DHT22;156;48.738;9.228;2023-02-28T01:09:14;-2.50;1.00
336;DHT22;156;48.738;9.228;2023-02-28T01:11:43;-2.50;1.00
336;DHT22;156;48.738;9.228;2023-02-28T01:14:12;-2.60;1.00
336;DHT22;156;48.738;9.228;2023-02-28T01:16:39;-2.60;1.00
336;DHT22;156;48.738;9.228;2023-02-28T01:19:07;-2.60;1.00
336;DHT22;156;48.738;9.228;2023-02-28T01:21:33;-2.60;1.00
336;DHT22;156;48.738;9.228;2023-02-28T01:24:01;-2.60;1.00
336;DHT22;156;48.738;9.228;2023-02-28T01:26:28;-2.60;1.00
336;DHT22;156;48.738;9.228;2023-02-28T01:28:57;-2.70;1.00
336;DHT22;156;48.738;9.228;2023-02-28T01:31:23;-2.60;1.00
336;DHT22;156;48.738;9.228;2023-02-28T01:33:50;-2.60;1.00
336;DHT22;156;48.738;9.228;2023-02-28T01:36:19;-2.60;1.00
336;DHT22;156;48.738;9.228;2023-02-28T01:38:47;-2.60;1.00
336;DHT22;156;48.738;9.228;2023-02-28T01:41:18;-2.60;1.00
336;DHT22;156;48.738;9.228;2023-02-28T01:43:59;-2.60;1.00
336;DHT22;156;48.738;9.228;2023-02-28T01:46:29;-2.60;1.00
336;DHT22;156;48.738;9.228;2023-02-28T01:49:01;-2.60;1.00
336;DHT22;156;48.738;9.228;2023-02-28T01:51:33;-2.60;1.00
336;DHT22;156;48.738;9.228;2023-02-28T01:54:03;-2.70;1.00
336;DHT22;156;48.738;9.228;2023-02-28T01:56:33;-2.70;1.00
336;DHT22;156;48.738;9.228;2023-02-28T01:59:03;-2.70;1.00
336;DHT22;156;48.738;9.228;2023-02-28T02:01:30;-2.70;1.00
336;DHT22;156;48.738;9.228;2023-02-28T02:04:00;-2.70;1.00
336;DHT22;156;48.738;9.228;2023-02-28T02:06:34;-2.70;1.00
336;DHT22;156;48.738;9.228;2023-02-28T02:09:01;-2.70;1.00
336;DHT22;156;48.738;9.228;2023-02-28T02:11:28;-2.70;1.00
336;DHT22;156;48.738;9.228;2023-02-28T02:14:12;-2.70;1.00
336;DHT22;156;48.738;9.228;2023-02-28T02:16:55;-2.70;1.00
336;DHT22;156;48.738;9.228;2023-02-28T02:23:07;-2.70;1.00
336;DHT22;156;48.738;9.228;2023-02-28T02:25:42;-2.70;1.00
336;DHT22;156;48.738;9.228;2023-02-28T02:31:38;-2.70;1.00
336;DHT22;156;48.738;9.228;2023-02-28T02:34:29;-2.70;1.00
336;DHT22;156;48.738;9.228;2023-02-28T02:37:06;-2.70;1.00
336;DHT22;156;48.738;9.228;2023-02-28T02:39:41;-2.70;1.00
336;DHT22;156;48.738;9.228;2023-02-28T02:42:15;-2.70;1.00
336;DHT22;156;48.738;9.228;2023-02-28T02:44:47;-2.70;1.00
336;DHT22;156;48.738;9.228;2023-02-28T02:47:18;-2.70;1.00
336;DHT22;156;48.738;9.228;2023-02-28T02:49:50;-2.70;1.00
336;DHT22;156;48.738;9.228;2023-02-28T02:52:22;-2.70;1.00
336;DHT22;156;48.738;9.228;2023-02-28T02:54:52;-2.70;1.00
336;DHT22;156;48.738;9.228;2023-02-28T02:57:23;-2.70;1.00
336;DHT22;156;48.738;9.228;2023-02-28T02:59:51;-2.70;1.00
336;DHT22;156;48.738;9.228;2023-02-28T03:02:21;-2.70;1.00
336;DHT22;156;48.738;9.228;2023-02-28T03:04:52;-2.60;1.00
336;DHT22;156;48.738;9.228;2023-02-28T03:07:20;-2.60;1.00
336;DHT22;156;48.738;9.228;2023-02-28T03:09:51;-2.70;1.00
336;DHT22;156;48.738;9.228;2023-02-28T03:12:18;-2.60;1.00
336;DHT22;156;48.738;9.228;2023-02-28T03:14:55;-2.60;1.00
336;DHT22;156;48.738;9.228;2023-02-28T03:17:43;-2.60;1.00
336;DHT22;156;48.738;9.228;2023-02-28T03:20:23;-2.60;1.00
336;DHT22;156;48.738;9.228;2023-02-28T03:23:03;-2.60;1.00
336;DHT22;156;48.738;9.228;2023-02-28T03:25:39;-2.60;1.00
336;DHT22;156;48.738;9.228;2023-02-28T03:28:14;-2.60;1.00
336;DHT22;156;48.738;9.228;2023-02-28T03:30:47;-2.60;1.00
336;DHT22;156;48.738;9.228;2023-02-28T03:33:21;-2.50;1.00
336;DHT22;156;48.738;9.228;2023-02-28T03:35:52;-2.50;1.00
336;DHT22;156;48.738;9.228;2023-02-28T03:38:24;-2.50;1.00
336;DHT22;156;48.738;9.228;2023-02-28T03:40:58;-2.40;1.00
336;DHT22;156;48.738;9.228;2023-02-28T03:43:31;-2.40;1.00
336;DHT22;156;48.738;9.228;2023-02-28T03:46:02;-2.40;1.00
336;DHT22;156;48.738;9.228;2023-02-28T03:48:38;-2.40;1.00
336;DHT22;156;48.738;9.228;2023-02-28T03:51:09;-2.40;1.00
336;DHT22;156;48.738;9.228;2023-02-28T03:53:39;-2.40;1.00
336;DHT22;156;48.738;9.228;2023-02-28T03:56:18;-2.40;1.00
336;DHT22;156;48.738;9.228;2023-02-28T03:58:51;-2.40;1.00
336;DHT22;156;48.738;9.228;2023-02-28T04:01:23;-2.40;1.00
336;DHT22;156;48.738;9.228;2023-02-28T04:03:50;-2.30;1.00
336;DHT22;156;48.738;9.228;2023-02-28T04:06:21;-2.30;1.00
336;DHT22;156;48.738;9.228;2023-02-28T04:08:49;-2.30;1.00
336;DHT22;156;48.738;9.228;2023-02-28T04:11:22;-2.30;1.00
336;DHT22;156;48.738;9.228;2023-02-28T04:13:50;-2.30;1.00
336;DHT22;156;48.738;9.228;2023-02-28T04:16:17;-2.20;1.00
336;DHT22;156;48.738;9.228;2023-02-28T04:18:44;-2.30;1.00
336;DHT22;156;48.738;9.228;2023-02-28T04:21:11;-2.20;1.00
336;DHT22;156;48.738;9.228;2023-02-28T04:23:39;-2.20;1.00
336;DHT22;156;48.738;9.228;2023-02-28T04:26:06;-2.20;1.00
336;DHT22;156;48.738;9.228;2023-02-28T04:28:34;-2.10;1.00
336;DHT22;156;48.738;9.228;2023-02-28T04:31:03;-2.20;1.00
336;DHT22;156;48.738;9.228;2023-02-28T04:33:31;-2.20;1.00
336;DHT22;156;48.738;9.228;2023-02-28T04:35:59;-2.20;1.00
336;DHT22;156;48.738;9.228;2023-02-28T04:38:28;-2.20;1.00
336;DHT22;156;48.738;9.228;2023-02-28T04:40:58;-2.20;1.00
336;DHT22;156;48.738;9.228;2023-02-28T04:43:27;-2.20;1.00
336;DHT22;156;48.738;9.228;2023-02-28T04:45:54;-2.20;1.00
336;DHT22;156;48.738;9.228;2023-02-28T04:48:22;-2.10;1.00
336;DHT22;156;48.738;9.228;2023-02-28T04:50:50;-2.10;1.00
336;DHT22;156;48.738;9.228;2023-02-28T04:53:17;-2.10;1.00
336;DHT22;156;48.738;9.228;2023-02-28T04:55:44;-2.10;1.00
336;DHT22;156;48.738;9.228;2023-02-28T04:58:13;-2.20;1.00
336;DHT22;156;48.738;9.228;2023-02-28T05:00:40;-2.10;1.00
336;DHT22;156;48.738;9.228;2023-02-28T05:03:07;-2.10;1.00
336;DHT22;156;48.738;9.228;2023-02-28T05:05:35;-2.20;1.00
336;DHT22;156;48.738;9.228;2023-02-28T05:08:02;-2.10;1.00
336;DHT22;156;48.738;9.228;2023-02-28T05:10:30;-2.10;1.00
336;DHT22;156;48.738;9.228;2023-02-28T05:12:57;-2.10;1.00
336;DHT22;156;48.738;9.228;2023-02-28T05:15:25;-2.10;1.00
336;DHT22;156;48.738;9.228;2023-02-28T05:17:52;-2.10;1.00
336;DHT22;156;48.738;9.228;2023-02-28T05:20:19;-2.10;1.00
336;DHT22;156;48.738;9.228;2023-02-28T05:22:46;-2.10;1.00
336;DHT22;156;48.738;9.228;2023-02-28T05:25:17;-1.40;1.00
336;DHT22;156;48.738;9.228;2023-02-28T05:27:45;-2.10;1.00
336;DHT22;156;48.738;9.228;2023-02-28T05:30:12;-2.00;1.00
336;DHT22;156;48.738;9.228;2023-02-28T05:32:41;-2.00;1.00
336;DHT22;156;48.738;9.228;2023-02-28T05:35:09;-2.00;1.00
336;DHT22;156;48.738;9.228;2023-02-28T05:37:36;-2.00;1.00
336;DHT22;156;48.738;9.228;2023-02-28T05:40:04;-2.00;1.00
336;DHT22;156;48.738;9.228;2023-02-28T05:42:32;-2.00;1.00
336;DHT22;156;48.738;9.228;2023-02-28T05:44:59;-2.00;1.00
336;DHT22;156;48.738;9.228;2023-02-28T05:47:26;-2.10;1.00
336;DHT22;156;48.738;9.228;2023-02-28T05:49:54;-1.80;1.00
336;DHT22;156;48.738;9.228;2023-02-28T05:52:21;-1.80;1.00
336;DHT22;156;48.738;9.228;2023-02-28T05:54:48;-1.80;1.00
336;DHT22;156;48.738;9.228;2023-02-28T05:57:15;-1.70;1.00
336;DHT22;156;48.738;9.228;2023-02-28T05:59:42;-1.80;1.00
336;DHT22;156;48.738;9.228;2023-02-28T06:02:12;-1.80;1.00
336;DHT22;156;48.738;9.228;2023-02-28T06:04:39;-1.70;1.00
336;DHT22;156;48.738;9.228;2023-02-28T06:07:08;-1.90;1.00
336;DHT22;156;48.738;9.228;2023-02-28T06:09:35;-1.90;1.00
336;DHT22;156;48.738;9.228;2023-02-28T06:12:03;-1.90;1.00
336;DHT22;156;48.738;9.228;2023-02-28T06:14:31;-1.90;1.00
336;DHT22;156;48.738;9.228;2023-02-28T06:16:59;-1.90;1.00
336;DHT22;156;48.738;9.228;2023-02-28T06:19:27;-2.00;1.00
336;DHT22;156;48.738;9.228;2023-02-28T06:21:54;-2.00;1.00
336;DHT22;156;48.738;9.228;2023-02-28T06:24:24;-2.00;1.00
336;DHT22;156;48.738;9.228;2023-02-28T06:26:53;-1.90;1.00
336;DHT22;156;48.738;9.228;2023-02-28T06:29:20;-1.90;1.00
336;DHT22;156;48.738;9.228;2023-02-28T06:31:47;-1.80;1.00
336;DHT22;156;48.738;9.228;2023-02-28T06:34:14;-1.80;1.00
336;DHT22;156;48.738;9.228;2023-02-28T06:36:42;-1.80;1.00
336;DHT22;156;48.738;9.228;2023-02-28T06:39:09;-1.70;1.00
336;DHT22;156;48.738;9.228;2023-02-28T06:41:37;-1.70;1.00
336;DHT22;156;48.738;9.228;2023-02-28T06:44:08;-1.70;1.00
336;DHT22;156;48.738;9.228;2023-02-28T06:46:40;-1.70;1.00
336;DHT22;156;48.738;9.228;2023-02-28T06:49:08;-1.60;1.00
336;DHT22;156;48.738;9.228;2023-02-28T06:51:36;-1.50;1.00
336;DHT22;156;48.738;9.228;2023-02-28T06:54:04;-1.40;1.00
336;DHT22;156;48.738;9.228;2023-02-28T06:56:35;-1.40;1.00
336;DHT22;156;48.738;9.228;2023-02-28T06:59:03;-1.40;1.00
336;DHT22;156;48.738;9.228;2023-02-28T07:01:31;-1.50;1.00
336;DHT22;156;48.738;9.228;2023-02-28T07:03:59;-1.60;1.00
336;DHT22;156;48.738;9.228;2023-02-28T07:06:26;-1.60;1.00
336;DHT22;156;48.738;9.228;2023-02-28T07:08:54;-1.50;1.00
336;DHT22;156;48.738;9.228;2023-02-28T07:11:22;-1.50;1.00
336;DHT22;156;48.738;9.228;2023-02-28T07:13:51;-1.50;1.00
336;DHT22;156;48.738;9.228;2023-02-28T07:16:19;-1.40;1.00
336;DHT22;156;48.738;9.228;2023-02-28T07:18:46;-1.40;1.00
336;DHT22;156;48.738;9.228;2023-02-28T07:21:13;-1.40;1.00
336;DHT22;156;48.738;9.228;2023-02-28T07:23:40;-1.40;1.00
336;DHT22;156;48.738;9.228;2023-02-28T07:26:11;-1.40;1.00
336;DHT22;156;48.738;9.228;2023-02-28T07:28:40;-1.30;1.00
336;DHT22;156;48.738;9.228;2023-02-28T07:31:08;-1.20;1.00
336;DHT22;156;48.738;9.228;2023-02-28T07:33:38;-1.30;1.00
336;DHT22;156;48.738;9.228;2023-02-28T07:36:07;-1.20;1.00
336;DHT22;156;48.738;9.228;2023-02-28T07:38:35;-1.40;1.00
336;DHT22;156;48.738;9.228;2023-02-28T07:41:03;-1.30;1.00
336;DHT22;156;48.738;9.228;2023-02-28T07:43:30;-1.30;1.00
336;DHT22;156;48.738;9.228;2023-02-28T07:46:01;-1.30;1.00
336;DHT22;156;48.738;9.228;2023-02-28T07:48:28;-1.30;1.00
336;DHT22;156;48.738;9.228;2023-02-28T07:50:56;-1.20;1.00
336;DHT22;156;48.738;9.228;2023-02-28T07:53:24;-1.10;1.00
336;DHT22;156;48.738;9.228;2023-02-28T07:55:50;-1.20;1.00
336;DHT22;156;48.738;9.228;2023-02-28T07:58:18;-1.30;1.00
336;DHT22;156;48.738;9.228;2023-02-28T08:00:45;-1.30;1.00
336;DHT22;156;48.738;9.228;2023-02-28T08:03:13;-1.20;1.00
336;DHT22;156;48.738;9.228;2023-02-28T08:05:39;-1.10;1.00
336;DHT22;156;48.738;9.228;2023-02-28T08:08:09;-1.10;1.00
336;DHT22;156;48.738;9.228;2023-02-28T08:10:36;-1.30;1.00
336;DHT22;156;48.738;9.228;2023-02-28T08:13:04;-1.30;1.00
336;DHT22;156;48.738;9.228;2023-02-28T08:15:31;-1.20;1.00
336;DHT22;156;48.738;9.228;2023-02-28T08:17:58;-1.10;1.00
336;DHT22;156;48.738;9.228;2023-02-28T08:20:25;-1.10;1.00
336;DHT22;156;48.738;9.228;2023-02-28T08:22:52;-1.10;1.00
336;DHT22;156;48.738;9.228;2023-02-28T08:25:20;-1.10;1.00
336;DHT22;156;48.738;9.228;2023-02-28T08:27:47;-1.20;1.00
336;DHT22;156;48.738;9.228;2023-02-28T08:30:17;-1.20;1.00
336;DHT22;156;48.738;9.228;2023-02-28T08:32:43;-1.20;1.00
336;DHT22;156;48.738;9.228;2023-02-28T08:35:10;-1.10;1.00
336;DHT22;156;48.738;9.228;2023-02-28T08:37:37;-1.20;1.00
336;DHT22;156;48.738;9.228;2023-02-28T08:40:05;-1.10;1.00
336;DHT22;156;48.738;9.228;2023-02-28T08:42:34;-0.90;1.00
336;DHT22;156;48.738;9.228;2023-02-28T08:45:00;-1.00;1.00
336;DHT22;156;48.738;9.228;2023-02-28T08:47:27;-0.90;1.00
336;DHT22;156;48.738;9.228;2023-02-28T08:49:54;-0.90;1.00
336;DHT22;156;48.738;9.228;2023-02-28T08:52:21;-0.90;1.00
336;DHT22;156;48.738;9.228;2023-02-28T08:54:48;-0.90;1.00
336;DHT22;156;48.738;9.228;2023-02-28T08:57:15;-0.80;1.00
336;DHT22;156;48.738;9.228;2023-02-28T08:59:43;-0.90;1.00
336;DHT22;156;48.738;9.228;2023-02-28T09:02:12;-0.90;1.00
336;DHT22;156;48.738;9.228;2023-02-28T09:04:39;-0.90;1.00
336;DHT22;156;48.738;9.228;2023-02-28T09:07:06;-0.80;1.00
336;DHT22;156;48.738;9.228;2023-02-28T09:09:33;-0.70;1.00
336;DHT22;156;48.738;9.228;2023-02-28T09:12:00;-0.60;1.00
336;DHT22;156;48.738;9.228;2023-02-28T09:14:27;-0.50;1.00
336;DHT22;156;48.738;9.228;2023-02-28T09:16:55;-0.50;1.00
336;DHT22;156;48.738;9.228;2023-02-28T09:19:22;-0.50;1.00
336;DHT22;156;48.738;9.228;2023-02-28T09:21:49;-0.60;1.00
336;DHT22;156;48.738;9.228;2023-02-28T09:24:16;-0.60;1.00
336;DHT22;156;48.738;9.228;2023-02-28T09:26:43;-0.50;1.00
336;DHT22;156;48.738;9.228;2023-02-28T09:29:10;-0.50;1.00
336;DHT22;156;48.738;9.228;2023-02-28T09:31:37;-0.40;1.00
336;DHT22;156;48.738;9.228;2023-02-28T09:34:05;-0.20;1.00
336;DHT22;156;48.738;9.228;2023-02-28T09:36:32;0.10;1.00
336;DHT22;156;48.738;9.228;2023-02-28T09:39:00;0.10;1.00
336;DHT22;156;48.738;9.228;2023-02-28T09:41:38;0.10;1.00
336;DHT22;156;48.738;9.228;2023-02-28T09:44:17;0.00;1.00
336;DHT22;156;48.738;9.228;2023-02-28T09:46:49;-0.10;1.00
336;DHT22;156;48.738;9.228;2023-02-28T09:49:23;-0.10;1.00
336;DHT22;156;48.738;9.228;2023-02-28T09:51:56;-0.10;1.00
336;DHT22;156;48.738;9.228;2023-02-28T09:54:28;-0.10;1.00
336;DHT22;156;48.738;9.228;2023-02-28T09:56:59;0.00;1.00
336;DHT22;156;48.738;9.228;2023-02-28T09:59:39;-0.10;1.00
336;DHT22;156;48.738;9.228;2023-02-28T10:02:35;-0.20;1.00
336;DHT22;156;48.738;9.228;2023-02-28T10:05:09;-0.20;1.00
336;DHT22;156;48.738;9.228;2023-02-28T10:07:53;-0.10;1.00
336;DHT22;156;48.738;9.228;2023-02-28T10:10:28;-0.10;1.00
336;DHT22;156;48.738;9.228;2023-02-28T10:12:59;0.00;1.00
336;DHT22;156;48.738;9.228;2023-02-28T10:15:30;0.20;1.00
336;DHT22;156;48.738;9.228;2023-02-28T10:18:01;0.30;1.00
336;DHT22;156;48.738;9.228;2023-02-28T10:20:32;0.50;1.00
336;DHT22;156;48.738;9.228;2023-02-28T10:23:05;0.50;1.00
336;DHT22;156;48.738;9.228;2023-02-28T10:25:37;0.20;1.00
336;DHT22;156;48.738;9.228;2023-02-28T10:28:10;0.30;1.00
336;DHT22;156;48.738;9.228;2023-02-28T10:30:40;0.30;1.00
336;DHT22;156;48.738;9.228;2023-02-28T10:33:18;0.40;1.00
336;DHT22;156;48.738;9.228;2023-02-28T10:35:48;0.50;1.00
336;DHT22;156;48.738;9.228;2023-02-28T10:38:19;0.70;1.00
336;DHT22;156;48.738;9.228;2023-02-28T10:40:46;0.80;1.00
336;DHT22;156;48.738;9.228;2023-02-28T10:43:21;0.60;1.00
336;DHT22;156;48.738;9.228;2023-02-28T10:45:58;0.60;1.00
336;DHT22;156;48.738;9.228;2023-02-28T10:48:30;0.70;1.00
336;DHT22;156;48.738;9.228;2023-02-28T10:51:04;0.90;1.00
336;DHT22;156;48.738;9.228;2023-02-28T10:53:36;1.00;1.00
336;DHT22;156;48.738;9.228;2023-02-28T10:56:12;0.90;1.00
336;DHT22;156;48.738;9.228;2023-02-28T10:58:51;1.10;1.00
336;DHT22;156;48.738;9.228;2023-02-28T11:01:20;1.10;1.00
336;DHT22;156;48.738;9.228;2023-02-28T11:03:48;1.10;1.00
336;DHT22;156;48.738;9.228;2023-02-28T11:06:18;1.10;1.00
336;DHT22;156;48.738;9.228;2023-02-28T11:08:48;1.00;1.00
336;DHT22;156;48.738;9.228;2023-02-28T11:11:16;1.10;1.00
336;DHT22;156;48.738;9.228;2023-02-28T11:13:45;1.10;1.00
336;DHT22;156;48.738;9.228;2023-02-28T11:16:14;1.30;1.00
336;DHT22;156;48.738;9.228;2023-02-28T11:18:46;1.50;1.00
336;DHT22;156;48.738;9.228;2023-02-28T11:21:24;1.40;1.00
336;DHT22;156;48.738;9.228;2023-02-28T11:23:56;1.30;1.00
336;DHT22;156;48.738;9.228;2023-02-28T11:26:45;2.60;1.00
336;DHT22;156;48.738;9.228;2023-02-28T11:29:26;1.00;1.00
336;DHT22;156;48.738;9.228;2023-02-28T11:32:21;1.00;1.00
336;DHT22;156;48.738;9.228;2023-02-28T11:35:13;1.00;1.00
336;DHT22;156;48.738;9.228;2023-02-28T11:38:19;1.00;1.00
336;DHT22;156;48.738;9.228;2023-02-28T11:41:08;1.30;1.00
336;DHT22;156;48.738;9.228;2023-02-28T11:44:01;1.70;1.00
336;DHT22;156;48.738;9.228;2023-02-28T11:50:04;2.10;1.00
336;DHT22;156;48.738;9.228;2023-02-28T11:52:52;1.90;1.00
336;DHT22;156;48.738;9.228;2023-02-28T11:55:58;1.90;1.00
336;DHT22;156;48.738;9.228;2023-02-28T11:58:55;2.30;1.00
336;DHT22;156;48.738;9.228;2023-02-28T12:02:15;2.00;1.00
336;DHT22;156;48.738;9.228;2023-02-28T12:05:01;2.70;1.00
336;DHT22;156;48.738;9.228;2023-02-28T12:08:08;3.00;1.00
336;DHT22;156;48.738;9.228;2023-02-28T12:10:57;3.50;1.00
336;DHT22;156;48.738;9.228;2023-02-28T12:17:28;2.70;1.00
336;DHT22;156;48.738;9.228;2023-02-28T12:20:06;3.00;1.00
336;DHT22;156;48.738;9.228;2023-02-28T12:23:03;3.10;1.00
336;DHT22;156;48.738;9.228;2023-02-28T12:25:57;4.50;1.00
336;DHT22;156;48.738;9.228;2023-02-28T12:28:40;3.60;1.00
336;DHT22;156;48.738;9.228;2023-02-28T12:31:26;3.80;1.00
336;DHT22;156;48.738;9.228;2023-02-28T12:34:25;4.30;1.00
336;DHT22;156;48.738;9.228;2023-02-28T12:37:17;6.20;1.00
336;DHT22;156;48.738;9.228;2023-02-28T12:42:53;5.20;1.00
336;DHT22;156;48.738;9.228;2023-02-28T12:45:38;4.90;1.00
336;DHT22;156;48.738;9.228;2023-02-28T12:48:25;5.40;1.00
336;DHT22;156;48.738;9.228;2023-02-28T12:51:29;5.90;1.00
336;DHT22;156;48.738;9.228;2023-02-28T12:57:25;5.50;1.00
336;DHT22;156;48.738;9.228;2023-02-28T13:03:37;5.30;1.00
336;DHT22;156;48.738;9.228;2023-02-28T13:06:43;5.00;1.00
336;DHT22;156;48.738;9.228;2023-02-28T13:09:18;4.90;1.00
336;DHT22;156;48.738;9.228;2023-02-28T13:12:00;4.20;1.00
336;DHT22;156;48.738;9.228;2023-02-28T13:14:35;5.50;1.00
336;DHT22;156;48.738;9.228;2023-02-28T13:17:23;6.40;1.00
336;DHT22;156;48.738;9.228;2023-02-28T13:20:13;5.40;1.00
336;DHT22;156;48.738;9.228;2023-02-28T13:22:57;5.80;1.00
336;DHT22;156;48.738;9.228;2023-02-28T13:25:51;9.30;1.00
336;DHT22;156;48.738;9.228;2023-02-28T13:39:00;6.70;1.00
336;DHT22;156;48.738;9.228;2023-02-28T13:41:46;5.10;1.00
336;DHT22;156;48.738;9.228;2023-02-28T13:44:26;5.70;1.00
336;DHT22;156;48.738;9.228;2023-02-28T13:47:43;5.80;1.00
336;DHT22;156;48.738;9.228;2023-02-28T13:50:50;8.40;1.00
336;DHT22;156;48.738;9.228;2023-02-28T13:53:54;6.20;1.00
336;DHT22;156;48.738;9.228;2023-02-28T13:56:35;6.70;1.00
336;DHT22;156;48.738;9.228;2023-02-28T13:59:22;9.20;1.00
336;DHT22;156;48.738;9.228;2023-02-28T14:02:03;7.90;1.00
336;DHT22;156;48.738;9.228;2023-02-28T14:04:49;6.20;1.00
336;DHT22;156;48.738;9.228;2023-02-28T14:07:25;8.40;1.00
336;DHT22;156;48.738;9.228;2023-02-28T14:10:15;6.00;1.00
336;DHT22;156;48.738;9.228;2023-02-28T14:13:03;7.20;1.00
336;DHT22;156;48.738;9.228;2023-02-28T14:15:46;6.30;1.00
336;DHT22;156;48.738;9.228;2023-02-28T14:18:21;6.80;1.00
336;DHT22;156;48.738;9.228;2023-02-28T14:20:53;6.50;1.00
336;DHT22;156;48.738;9.228;2023-02-28T14:23:34;6.80;1.00
336;DHT22;156;48.738;9.228;2023-02-28T14:26:16;5.80;1.00
336;DHT22;156;48.738;9.228;2023-02-28T14:29:07;7.40;1.00
336;DHT22;156;48.738;9.228;2023-02-28T14:31:44;5.80;1.00
336;DHT22;156;48.738;9.228;2023-02-28T14:34:38;7.40;1.00
336;DHT22;156;48.738;9.228;2023-02-28T14:37:13;7.10;1.00
336;DHT22;156;48.738;9.228;2023-02-28T14:39:49;7.60;1.00
336;DHT22;156;48.738;9.228;2023-02-28T14:42:30;7.10;1.00
336;DHT22;156;48.738;9.228;2023-02-28T14:45:18;8.10;1.00
336;DHT22;156;48.738;9.228;2023-02-28T14:47:51;5.80;1.00
336;DHT22;156;48.738;9.228;2023-02-28T14:50:31;6.30;1.00
336;DHT22;156;48.738;9.228;2023-02-28T14:53:00;6.80;1.00
336;DHT22;156;48.738;9.228;2023-02-28T14:55:34;6.70;1.00
336;DHT22;156;48.738;9.228;2023-02-28T14:58:19;7.00;1.00
336;DHT22;156;48.738;9.228;2023-02-28T15:00:56;6.10;1.00
336;DHT22;156;48.738;9.228;2023-02-28T15:03:31;6.30;1.00
336;DHT22;156;48.738;9.228;2023-02-28T15:06:04;6.60;1.00
336;DHT22;156;48.738;9.228;2023-02-28T15:08:33;6.10;1.00
336;DHT22;156;48.738;9.228;2023-02-28T15:11:16;6.30;1.00
336;DHT22;156;48.738;9.228;2023-02-28T15:13:51;5.90;1.00
336;DHT22;156;48.738;9.228;2023-02-28T15:16:22;5.90;1.00
336;DHT22;156;48.738;9.228;2023-02-28T15:18:53;5.50;1.00
336;DHT22;156;48.738;9.228;2023-02-28T15:21:22;5.70;1.00
336;DHT22;156;48.738;9.228;2023-02-28T15:23:52;6.10;1.00
336;DHT22;156;48.738;9.228;2023-02-28T15:26:23;6.10;1.00
336;DHT22;156;48.738;9.228;2023-02-28T15:28:56;5.90;1.00
336;DHT22;156;48.738;9.228;2023-02-28T15:31:29;6.10;1.00
336;DHT22;156;48.738;9.228;2023-02-28T15:34:03;6.00;1.00
336;DHT22;156;48.738;9.228;2023-02-28T15:36:32;6.00;1.00
336;DHT22;156;48.738;9.228;2023-02-28T15:39:16;6.10;1.00
336;DHT22;156;48.738;9.228;2023-02-28T15:41:46;6.00;1.00
336;DHT22;156;48.738;9.228;2023-02-28T15:44:22;6.50;1.00
336;DHT22;156;48.738;9.228;2023-02-28T15:46:58;6.00;1.00
336;DHT22;156;48.738;9.228;2023-02-28T15:49:27;6.00;1.00
336;DHT22;156;48.738;9.228;2023-02-28T15:51:58;6.50;1.00
336;DHT22;156;48.738;9.228;2023-02-28T15:54:28;5.90;1.00
336;DHT22;156;48.738;9.228;2023-02-28T15:57:03;5.30;1.00
336;DHT22;156;48.738;9.228;2023-02-28T15:59:32;5.00;1.00
336;DHT22;156;48.738;9.228;2023-02-28T16:02:04;5.00;1.00
336;DHT22;156;48.738;9.228;2023-02-28T16:04:55;5.00;1.00
336;DHT22;156;48.738;9.228;2023-02-28T16:07:22;4.90;1.00
336;DHT22;156;48.738;9.228;2023-02-28T16:09:49;4.80;1.00
336;DHT22;156;48.738;9.228;2023-02-28T16:12:17;4.80;1.00
336;DHT22;156;48.738;9.228;2023-02-28T16:14:45;4.60;1.00
336;DHT22;156;48.738;9.228;2023-02-28T16:17:19;4.40;1.00
336;DHT22;156;48.738;9.228;2023-02-28T16:19:47;4.30;1.00
336;DHT22;156;48.738;9.228;2023-02-28T16:22:14;4.20;1.00
336;DHT22;156;48.738;9.228;2023-02-28T16:24:41;4.10;1.00
336;DHT22;156;48.738;9.228;2023-02-28T16:27:17;4.10;1.00
336;DHT22;156;48.738;9.228;2023-02-28T16:29:45;4.10;1.00
336;DHT22;156;48.738;9.228;2023-02-28T16:32:14;4.00;1.00
336;DHT22;156;48.738;9.228;2023-02-28T16:34:42;4.00;1.00
336;DHT22;156;48.738;9.228;2023-02-28T16:37:15;4.00;1.00
336;DHT22;156;48.738;9.228;2023-02-28T16:39:46;3.90;1.00
336;DHT22;156;48.738;9.228;2023-02-28T16:42:18;4.70;1.00
336;DHT22;156;48.738;9.228;2023-02-28T16:44:48;4.10;1.00
336;DHT22;156;48.738;9.228;2023-02-28T16:47:15;3.90;1.00
336;DHT22;156;48.738;9.228;2023-02-28T16:49:42;3.80;1.00
336;DHT22;156;48.738;9.228;2023-02-28T16:52:09;3.80;1.00
336;DHT22;156;48.738;9.228;2023-02-28T16:54:37;3.70;1.00
336;DHT22;156;48.738;9.228;2023-02-28T16:57:04;3.60;1.00
336;DHT22;156;48.738;9.228;2023-02-28T16:59:33;3.40;1.00
336;DHT22;156;48.738;9.228;2023-02-28T17:02:00;3.40;1.00
336;DHT22;156;48.738;9.228;2023-02-28T17:04:27;3.30;1.00
336;DHT22;156;48.738;9.228;2023-02-28T17:06:54;3.30;1.00
336;DHT22;156;48.738;9.228;2023-02-28T17:09:23;3.20;1.00
336;DHT22;156;48.738;9.228;2023-02-28T17:11:51;3.10;1.00
336;DHT22;156;48.738;9.228;2023-02-28T17:14:18;3.10;1.00
336;DHT22;156;48.738;9.228;2023-02-28T17:16:47;3.00;1.00
336;DHT22;156;48.738;9.228;2023-02-28T17:19:15;2.90;1.00
336;DHT22;156;48.738;9.228;2023-02-28T17:21:44;2.90;1.00
336;DHT22;156;48.738;9.228;2023-02-28T17:24:11;2.90;1.00
336;DHT22;156;48.738;9.228;2023-02-28T17:26:39;2.70;1.00
336;DHT22;156;48.738;9.228;2023-02-28T17:29:13;3.30;1.00
336;DHT22;156;48.738;9.228;2023-02-28T17:31:40;2.60;1.00
336;DHT22;156;48.738;9.228;2023-02-28T17:34:08;2.50;1.00
336;DHT22;156;48.738;9.228;2023-02-28T17:36:35;2.60;1.00
336;DHT22;156;48.738;9.228;2023-02-28T17:39:03;2.50;1.00
336;DHT22;156;48.738;9.228;2023-02-28T17:41:30;2.50;1.00
336;DHT22;156;48.738;9.228;2023-02-28T17:43:57;2.40;1.00
336;DHT22;156;48.738;9.228;2023-02-28T17:46:25;2.50;1.00
336;DHT22;156;48.738;9.228;2023-02-28T17:48:54;2.40;1.00
336;DHT22;156;48.738;9.228;2023-02-28T17:51:23;2.30;1.00
336;DHT22;156;48.738;9.228;2023-02-28T17:53:51;2.60;1.00
336;DHT22;156;48.738;9.228;2023-02-28T17:56:20;2.20;1.00
336;DHT22;156;48.738;9.228;2023-02-28T17:58:47;2.20;1.00
336;DHT22;156;48.738;9.228;2023-02-28T18:01:14;2.30;1.00
336;DHT22;156;48.738;9.228;2023-02-28T18:03:41;2.20;1.00
336;DHT22;156;48.738;9.228;2023-02-28T18:06:14;2.30;1.00
336;DHT22;156;48.738;9.228;2023-02-28T18:08:43;2.30;1.00